sensor_id;sensor_type;location;lat;lon;timestamp;P1;durP1;ratioP1;P2;durP2;ratioP2
75496;SDS011;64074;47.540;19.072;2023-04-24T00:01:31;13.83;;;9.87;;
75496;SDS011;64074;47.540;19.072;2023-04-24T00:04:34;13.43;;;10.10;;
75496;SDS011;64074;47.540;19.072;2023-04-24T00:07:37;13.45;;;10.18;;
75496;SDS011;64074;47.540;19.072;2023-04-24T00:10:40;14.70;;;10.27;;
75496;SDS011;64074;47.540;19.072;2023-04-24T00:13:43;13.70;;;9.95;;
75496;SDS011;64074;47.540;19.072;2023-04-24T00:16:46;16.87;;;10.13;;
75496;SDS011;64074;47.540;19.072;2023-04-24T00:19:50;14.70;;;10.37;;
75496;SDS011;64074;47.540;19.072;2023-04-24T00:22:54;15.43;;;10.15;;
75496;SDS011;64074;47.540;19.072;2023-04-24T00:25:57;14.43;;;10.18;;
75496;SDS011;64074;47.540;19.072;2023-04-24T00:29:00;15.73;;;9.98;;
75496;SDS011;64074;47.540;19.072;2023-04-24T00:32:06;14.03;;;10.20;;
75496;SDS011;64074;47.540;19.072;2023-04-24T00:35:09;13.80;;;10.40;;
75496;SDS011;64074;47.540;19.072;2023-04-24T00:38:12;13.60;;;10.45;;
75496;SDS011;64074;47.540;19.072;2023-04-24T00:41:17;13.75;;;9.95;;
75496;SDS011;64074;47.540;19.072;2023-04-24T00:44:19;14.45;;;10.23;;
75496;SDS011;64074;47.540;19.072;2023-04-24T00:47:23;16.67;;;10.40;;
75496;SDS011;64074;47.540;19.072;2023-04-24T00:50:28;16.27;;;10.63;;
75496;SDS011;64074;47.540;19.072;2023-04-24T00:53:32;13.95;;;10.75;;
75496;SDS011;64074;47.540;19.072;2023-04-24T00:56:35;13.20;;;10.32;;
75496;SDS011;64074;47.540;19.072;2023-04-24T00:59:38;13.18;;;10.20;;
75496;SDS011;64074;47.540;19.072;2023-04-24T01:02:44;16.17;;;9.80;;
75496;SDS011;64074;47.540;19.072;2023-04-24T01:05:49;27.37;;;11.87;;
75496;SDS011;64074;47.540;19.072;2023-04-24T01:08:53;14.98;;;9.02;;
75496;SDS011;64074;47.540;19.072;2023-04-24T01:11:57;14.80;;;9.80;;
75496;SDS011;64074;47.540;19.072;2023-04-24T01:15:00;14.70;;;9.23;;
75496;SDS011;64074;47.540;19.072;2023-04-24T01:18:03;12.90;;;9.33;;
75496;SDS011;64074;47.540;19.072;2023-04-24T01:21:06;12.10;;;8.33;;
75496;SDS011;64074;47.540;19.072;2023-04-24T01:24:11;12.40;;;8.57;;
75496;SDS011;64074;47.540;19.072;2023-04-24T01:27:14;10.82;;;8.15;;
75496;SDS011;64074;47.540;19.072;2023-04-24T01:30:20;13.73;;;8.73;;
75496;SDS011;64074;47.540;19.072;2023-04-24T01:33:23;10.83;;;8.00;;
75496;SDS011;64074;47.540;19.072;2023-04-24T01:36:26;14.17;;;8.40;;
75496;SDS011;64074;47.540;19.072;2023-04-24T01:39:31;12.13;;;8.75;;
75496;SDS011;64074;47.540;19.072;2023-04-24T01:42:35;16.15;;;8.20;;
75496;SDS011;64074;47.540;19.072;2023-04-24T01:45:39;12.18;;;8.35;;
75496;SDS011;64074;47.540;19.072;2023-04-24T01:48:42;11.87;;;8.63;;
75496;SDS011;64074;47.540;19.072;2023-04-24T01:51:45;11.50;;;8.60;;
75496;SDS011;64074;47.540;19.072;2023-04-24T01:54:49;19.15;;;10.30;;
75496;SDS011;64074;47.540;19.072;2023-04-24T01:57:52;15.93;;;9.73;;
75496;SDS011;64074;47.540;19.072;2023-04-24T02:00:58;14.90;;;10.20;;
75496;SDS011;64074;47.540;19.072;2023-04-24T02:04:04;13.10;;;9.23;;
75496;SDS011;64074;47.540;19.072;2023-04-24T02:07:09;13.93;;;11.37;;
75496;SDS011;64074;47.540;19.072;2023-04-24T02:10:13;16.13;;;10.57;;
75496;SDS011;64074;47.540;19.072;2023-04-24T02:13:19;19.40;;;12.27;;
75496;SDS011;64074;47.540;19.072;2023-04-24T02:16:22;18.75;;;12.65;;
75496;SDS011;64074;47.540;19.072;2023-04-24T02:19:27;18.47;;;12.37;;
75496;SDS011;64074;47.540;19.072;2023-04-24T02:22:30;19.47;;;13.90;;
75496;SDS011;64074;47.540;19.072;2023-04-24T02:25:36;19.67;;;13.70;;
75496;SDS011;64074;47.540;19.072;2023-04-24T02:28:39;18.25;;;13.90;;
75496;SDS011;64074;47.540;19.072;2023-04-24T02:31:42;23.63;;;15.52;;
75496;SDS011;64074;47.540;19.072;2023-04-24T02:34:46;24.70;;;17.93;;
75496;SDS011;64074;47.540;19.072;2023-04-24T02:37:50;19.70;;;15.40;;
75496;SDS011;64074;47.540;19.072;2023-04-24T02:40:53;17.98;;;13.40;;
75496;SDS011;64074;47.540;19.072;2023-04-24T02:43:55;18.77;;;13.25;;
75496;SDS011;64074;47.540;19.072;2023-04-24T02:46:59;16.83;;;13.13;;
75496;SDS011;64074;47.540;19.072;2023-04-24T02:50:02;18.03;;;13.90;;
75496;SDS011;64074;47.540;19.072;2023-04-24T02:53:05;20.87;;;13.63;;
75496;SDS011;64074;47.540;19.072;2023-04-24T02:56:08;18.10;;;14.20;;
75496;SDS011;64074;47.540;19.072;2023-04-24T02:59:12;18.10;;;13.63;;
75496;SDS011;64074;47.540;19.072;2023-04-24T03:02:15;21.10;;;14.77;;
75496;SDS011;64074;47.540;19.072;2023-04-24T03:05:18;18.60;;;14.17;;
75496;SDS011;64074;47.540;19.072;2023-04-24T03:08:21;22.93;;;14.90;;
75496;SDS011;64074;47.540;19.072;2023-04-24T03:11:24;20.55;;;15.05;;
75496;SDS011;64074;47.540;19.072;2023-04-24T03:14:27;19.65;;;15.20;;
75496;SDS011;64074;47.540;19.072;2023-04-24T03:17:32;20.00;;;14.75;;
75496;SDS011;64074;47.540;19.072;2023-04-24T03:20:35;20.93;;;15.40;;
75496;SDS011;64074;47.540;19.072;2023-04-24T03:23:39;19.60;;;14.77;;
75496;SDS011;64074;47.540;19.072;2023-04-24T03:26:42;20.05;;;15.35;;
75496;SDS011;64074;47.540;19.072;2023-04-24T03:30:06;23.88;;;16.45;;
75496;SDS011;64074;47.540;19.072;2023-04-24T03:33:23;18.45;;;14.95;;
75496;SDS011;64074;47.540;19.072;2023-04-24T03:36:35;18.37;;;13.73;;
75496;SDS011;64074;47.540;19.072;2023-04-24T03:39:41;17.43;;;13.47;;
75496;SDS011;64074;47.540;19.072;2023-04-24T03:42:45;18.58;;;14.10;;
75496;SDS011;64074;47.540;19.072;2023-04-24T03:45:48;19.60;;;14.60;;
75496;SDS011;64074;47.540;19.072;2023-04-24T03:48:52;21.30;;;15.00;;
75496;SDS011;64074;47.540;19.072;2023-04-24T03:51:58;20.37;;;14.23;;
75496;SDS011;64074;47.540;19.072;2023-04-24T03:55:02;18.47;;;14.23;;
75496;SDS011;64074;47.540;19.072;2023-04-24T03:58:11;18.15;;;14.40;;
75496;SDS011;64074;47.540;19.072;2023-04-24T04:01:14;18.98;;;13.82;;
75496;SDS011;64074;47.540;19.072;2023-04-24T04:04:31;19.42;;;14.05;;
75496;SDS011;64074;47.540;19.072;2023-04-24T04:07:35;21.70;;;14.17;;
75496;SDS011;64074;47.540;19.072;2023-04-24T04:10:39;18.93;;;13.37;;
75496;SDS011;64074;47.540;19.072;2023-04-24T04:13:42;19.33;;;14.20;;
75496;SDS011;64074;47.540;19.072;2023-04-24T04:16:44;20.88;;;13.75;;
75496;SDS011;64074;47.540;19.072;2023-04-24T04:19:48;18.02;;;13.35;;
75496;SDS011;64074;47.540;19.072;2023-04-24T04:22:50;18.20;;;13.33;;
75496;SDS011;64074;47.540;19.072;2023-04-24T04:26:01;16.93;;;12.40;;
75496;SDS011;64074;47.540;19.072;2023-04-24T04:29:15;20.75;;;12.85;;
75496;SDS011;64074;47.540;19.072;2023-04-24T04:32:22;16.45;;;12.80;;
75496;SDS011;64074;47.540;19.072;2023-04-24T04:35:25;17.48;;;13.55;;
75496;SDS011;64074;47.540;19.072;2023-04-24T04:38:29;18.00;;;13.37;;
75496;SDS011;64074;47.540;19.072;2023-04-24T04:41:50;17.57;;;13.43;;
75496;SDS011;64074;47.540;19.072;2023-04-24T04:44:55;18.88;;;13.77;;
75496;SDS011;64074;47.540;19.072;2023-04-24T04:48:10;20.48;;;13.75;;
75496;SDS011;64074;47.540;19.072;2023-04-24T04:51:15;19.52;;;14.02;;
75496;SDS011;64074;47.540;19.072;2023-04-24T04:54:20;21.60;;;13.80;;
75496;SDS011;64074;47.540;19.072;2023-04-24T04:57:22;18.70;;;13.60;;
75496;SDS011;64074;47.540;19.072;2023-04-24T05:00:25;16.17;;;13.25;;
75496;SDS011;64074;47.540;19.072;2023-04-24T05:03:30;19.45;;;13.60;;
75496;SDS011;64074;47.540;19.072;2023-04-24T05:06:38;18.05;;;13.63;;
75496;SDS011;64074;47.540;19.072;2023-04-24T05:09:42;18.80;;;13.97;;
75496;SDS011;64074;47.540;19.072;2023-04-24T05:12:45;18.63;;;13.43;;
75496;SDS011;64074;47.540;19.072;2023-04-24T05:15:48;18.48;;;13.60;;
75496;SDS011;64074;47.540;19.072;2023-04-24T05:18:52;19.50;;;14.05;;
75496;SDS011;64074;47.540;19.072;2023-04-24T05:22:01;22.75;;;14.90;;
75496;SDS011;64074;47.540;19.072;2023-04-24T05:25:07;20.13;;;14.60;;
75496;SDS011;64074;47.540;19.072;2023-04-24T05:28:15;22.07;;;14.73;;
75496;SDS011;64074;47.540;19.072;2023-04-24T05:31:23;19.23;;;14.80;;
75496;SDS011;64074;47.540;19.072;2023-04-24T05:34:27;18.10;;;14.90;;
75496;SDS011;64074;47.540;19.072;2023-04-24T05:37:32;20.65;;;15.15;;
75496;SDS011;64074;47.540;19.072;2023-04-24T05:40:37;18.43;;;14.23;;
75496;SDS011;64074;47.540;19.072;2023-04-24T05:43:39;24.20;;;13.40;;
75496;SDS011;64074;47.540;19.072;2023-04-24T05:46:42;22.15;;;15.05;;
75496;SDS011;64074;47.540;19.072;2023-04-24T05:49:46;19.02;;;13.50;;
75496;SDS011;64074;47.540;19.072;2023-04-24T05:52:50;16.10;;;11.88;;
75496;SDS011;64074;47.540;19.072;2023-04-24T05:56:00;23.13;;;11.93;;
75496;SDS011;64074;47.540;19.072;2023-04-24T05:59:07;20.60;;;12.53;;
75496;SDS011;64074;47.540;19.072;2023-04-24T06:02:14;25.08;;;14.55;;
75496;SDS011;64074;47.540;19.072;2023-04-24T06:05:20;17.75;;;12.25;;
75496;SDS011;64074;47.540;19.072;2023-04-24T06:08:23;22.92;;;11.25;;
75496;SDS011;64074;47.540;19.072;2023-04-24T06:11:29;22.93;;;11.33;;
75496;SDS011;64074;47.540;19.072;2023-04-24T06:14:32;15.67;;;10.53;;
75496;SDS011;64074;47.540;19.072;2023-04-24T06:17:51;18.02;;;10.90;;
75496;SDS011;64074;47.540;19.072;2023-04-24T06:20:55;17.13;;;11.63;;
75496;SDS011;64074;47.540;19.072;2023-04-24T06:23:59;19.23;;;12.32;;
75496;SDS011;64074;47.540;19.072;2023-04-24T06:27:02;21.53;;;11.83;;
75496;SDS011;64074;47.540;19.072;2023-04-24T06:30:05;21.07;;;14.80;;
75496;SDS011;64074;47.540;19.072;2023-04-24T06:33:09;17.40;;;11.90;;
75496;SDS011;64074;47.540;19.072;2023-04-24T06:36:22;16.38;;;11.57;;
75496;SDS011;64074;47.540;19.072;2023-04-24T06:39:25;17.90;;;12.68;;
75496;SDS011;64074;47.540;19.072;2023-04-24T06:42:28;14.47;;;10.80;;
75496;SDS011;64074;47.540;19.072;2023-04-24T06:45:32;15.37;;;11.23;;
75496;SDS011;64074;47.540;19.072;2023-04-24T06:48:36;15.68;;;10.35;;
75496;SDS011;64074;47.540;19.072;2023-04-24T06:51:41;16.67;;;10.95;;
75496;SDS011;64074;47.540;19.072;2023-04-24T06:54:44;17.10;;;11.85;;
75496;SDS011;64074;47.540;19.072;2023-04-24T06:57:47;20.20;;;11.40;;
75496;SDS011;64074;47.540;19.072;2023-04-24T07:00:54;18.57;;;11.63;;
75496;SDS011;64074;47.540;19.072;2023-04-24T07:03:58;14.73;;;11.30;;
75496;SDS011;64074;47.540;19.072;2023-04-24T07:07:02;15.30;;;11.10;;
75496;SDS011;64074;47.540;19.072;2023-04-24T07:10:05;17.40;;;11.02;;
75496;SDS011;64074;47.540;19.072;2023-04-24T07:13:11;14.40;;;11.17;;
75496;SDS011;64074;47.540;19.072;2023-04-24T07:16:16;16.60;;;10.73;;
75496;SDS011;64074;47.540;19.072;2023-04-24T07:19:20;19.52;;;10.77;;
75496;SDS011;64074;47.540;19.072;2023-04-24T07:22:24;14.73;;;11.85;;
75496;SDS011;64074;47.540;19.072;2023-04-24T07:25:27;20.58;;;11.93;;
75496;SDS011;64074;47.540;19.072;2023-04-24T07:28:30;16.53;;;11.27;;
75496;SDS011;64074;47.540;19.072;2023-04-24T07:31:33;15.27;;;11.50;;
75496;SDS011;64074;47.540;19.072;2023-04-24T07:34:37;15.38;;;11.23;;
75496;SDS011;64074;47.540;19.072;2023-04-24T07:37:40;15.85;;;10.75;;
75496;SDS011;64074;47.540;19.072;2023-04-24T07:40:48;19.85;;;11.70;;
75496;SDS011;64074;47.540;19.072;2023-04-24T07:43:53;15.87;;;11.80;;
75496;SDS011;64074;47.540;19.072;2023-04-24T07:47:18;18.47;;;12.43;;
75496;SDS011;64074;47.540;19.072;2023-04-24T07:50:36;29.92;;;12.52;;
75496;SDS011;64074;47.540;19.072;2023-04-24T07:53:39;17.33;;;11.20;;
75496;SDS011;64074;47.540;19.072;2023-04-24T07:56:43;18.67;;;11.30;;
75496;SDS011;64074;47.540;19.072;2023-04-24T07:59:45;15.70;;;10.90;;
75496;SDS011;64074;47.540;19.072;2023-04-24T08:02:49;19.10;;;11.03;;
75496;SDS011;64074;47.540;19.072;2023-04-24T08:05:52;15.57;;;11.38;;
75496;SDS011;64074;47.540;19.072;2023-04-24T08:08:57;14.60;;;10.48;;
75496;SDS011;64074;47.540;19.072;2023-04-24T08:12:00;16.23;;;11.65;;
75496;SDS011;64074;47.540;19.072;2023-04-24T08:15:05;21.30;;;11.87;;
75496;SDS011;64074;47.540;19.072;2023-04-24T08:18:08;17.90;;;11.20;;
75496;SDS011;64074;47.540;19.072;2023-04-24T08:21:14;20.70;;;12.85;;
75496;SDS011;64074;47.540;19.072;2023-04-24T08:24:21;16.08;;;11.43;;
75496;SDS011;64074;47.540;19.072;2023-04-24T08:27:25;19.02;;;12.38;;
75496;SDS011;64074;47.540;19.072;2023-04-24T08:30:29;19.53;;;12.23;;
75496;SDS011;64074;47.540;19.072;2023-04-24T08:33:32;16.77;;;12.13;;
75496;SDS011;64074;47.540;19.072;2023-04-24T08:36:37;18.40;;;12.27;;
75496;SDS011;64074;47.540;19.072;2023-04-24T08:39:52;15.90;;;11.75;;
75496;SDS011;64074;47.540;19.072;2023-04-24T08:42:59;19.27;;;12.50;;
75496;SDS011;64074;47.540;19.072;2023-04-24T08:46:05;18.47;;;12.57;;
75496;SDS011;64074;47.540;19.072;2023-04-24T08:49:15;19.70;;;11.93;;
75496;SDS011;64074;47.540;19.072;2023-04-24T08:52:20;16.85;;;11.68;;
75496;SDS011;64074;47.540;19.072;2023-04-24T08:55:32;14.52;;;10.48;;
75496;SDS011;64074;47.540;19.072;2023-04-24T08:58:42;17.20;;;10.40;;
75496;SDS011;64074;47.540;19.072;2023-04-24T09:01:50;14.63;;;10.77;;
75496;SDS011;64074;47.540;19.072;2023-04-24T09:05:07;13.40;;;10.97;;
75496;SDS011;64074;47.540;19.072;2023-04-24T09:08:14;16.27;;;10.48;;
75496;SDS011;64074;47.540;19.072;2023-04-24T09:11:23;15.25;;;10.32;;
75496;SDS011;64074;47.540;19.072;2023-04-24T09:14:33;15.70;;;10.82;;
75496;SDS011;64074;47.540;19.072;2023-04-24T09:17:46;13.77;;;10.30;;
75496;SDS011;64074;47.540;19.072;2023-04-24T09:24:06;12.95;;;9.55;;
75496;SDS011;64074;47.540;19.072;2023-04-24T09:27:23;11.35;;;9.00;;
75496;SDS011;64074;47.540;19.072;2023-04-24T09:30:28;14.63;;;8.20;;
75496;SDS011;64074;47.540;19.072;2023-04-24T09:33:34;9.13;;;7.60;;
75496;SDS011;64074;47.540;19.072;2023-04-24T09:36:56;15.80;;;8.97;;
75496;SDS011;64074;47.540;19.072;2023-04-24T09:40:10;9.63;;;7.00;;
75496;SDS011;64074;47.540;19.072;2023-04-24T09:43:23;9.98;;;7.55;;
75496;SDS011;64074;47.540;19.072;2023-04-24T09:46:39;10.73;;;7.43;;
75496;SDS011;64074;47.540;19.072;2023-04-24T09:49:45;21.50;;;12.47;;
75496;SDS011;64074;47.540;19.072;2023-04-24T09:53:04;10.80;;;8.30;;
75496;SDS011;64074;47.540;19.072;2023-04-24T09:56:11;16.35;;;8.25;;
75496;SDS011;64074;47.540;19.072;2023-04-24T09:59:17;9.63;;;7.43;;
75496;SDS011;64074;47.540;19.072;2023-04-24T10:02:21;12.20;;;7.00;;
75496;SDS011;64074;47.540;19.072;2023-04-24T10:05:24;10.40;;;7.53;;
75496;SDS011;64074;47.540;19.072;2023-04-24T10:08:34;15.30;;;7.90;;
75496;SDS011;64074;47.540;19.072;2023-04-24T10:11:40;11.38;;;7.07;;
75496;SDS011;64074;47.540;19.072;2023-04-24T10:14:45;10.57;;;6.40;;
75496;SDS011;64074;47.540;19.072;2023-04-24T10:17:59;10.82;;;6.45;;
75496;SDS011;64074;47.540;19.072;2023-04-24T10:21:14;10.80;;;6.73;;
75496;SDS011;64074;47.540;19.072;2023-04-24T10:24:36;10.93;;;7.00;;
75496;SDS011;64074;47.540;19.072;2023-04-24T10:27:41;11.10;;;7.05;;
75496;SDS011;64074;47.540;19.072;2023-04-24T10:30:44;13.13;;;7.25;;
75496;SDS011;64074;47.540;19.072;2023-04-24T10:33:48;10.23;;;7.47;;
75496;SDS011;64074;47.540;19.072;2023-04-24T10:36:54;8.83;;;7.03;;
75496;SDS011;64074;47.540;19.072;2023-04-24T10:40:00;12.13;;;7.90;;
75496;SDS011;64074;47.540;19.072;2023-04-24T10:43:05;10.82;;;7.60;;
75496;SDS011;64074;47.540;19.072;2023-04-24T10:46:16;10.45;;;6.53;;
75496;SDS011;64074;47.540;19.072;2023-04-24T10:49:30;13.25;;;7.00;;
75496;SDS011;64074;47.540;19.072;2023-04-24T10:52:45;12.47;;;7.67;;
75496;SDS011;64074;47.540;19.072;2023-04-24T10:59:07;11.95;;;7.85;;
75496;SDS011;64074;47.540;19.072;2023-04-24T11:02:15;13.93;;;8.27;;
75496;SDS011;64074;47.540;19.072;2023-04-24T11:05:22;12.60;;;8.38;;
75496;SDS011;64074;47.540;19.072;2023-04-24T11:11:35;14.70;;;9.60;;
75496;SDS011;64074;47.540;19.072;2023-04-24T11:17:58;14.88;;;10.38;;
75496;SDS011;64074;47.540;19.072;2023-04-24T11:21:09;14.20;;;9.70;;
75496;SDS011;64074;47.540;19.072;2023-04-24T11:24:27;12.67;;;9.30;;
75496;SDS011;64074;47.540;19.072;2023-04-24T11:27:32;13.73;;;9.07;;
75496;SDS011;64074;47.540;19.072;2023-04-24T11:30:46;11.40;;;8.80;;
75496;SDS011;64074;47.540;19.072;2023-04-24T11:33:50;15.57;;;9.18;;
75496;SDS011;64074;47.540;19.072;2023-04-24T11:36:53;12.20;;;9.43;;
75496;SDS011;64074;47.540;19.072;2023-04-24T11:39:57;15.33;;;9.50;;
75496;SDS011;64074;47.540;19.072;2023-04-24T11:43:03;13.33;;;9.97;;
75496;SDS011;64074;47.540;19.072;2023-04-24T11:46:09;13.43;;;9.10;;
75496;SDS011;64074;47.540;19.072;2023-04-24T11:49:13;11.68;;;9.55;;
75496;SDS011;64074;47.540;19.072;2023-04-24T11:52:19;13.85;;;9.43;;
75496;SDS011;64074;47.540;19.072;2023-04-24T11:58:25;14.97;;;9.33;;
75496;SDS011;64074;47.540;19.072;2023-04-24T12:01:41;14.70;;;10.25;;
75496;SDS011;64074;47.540;19.072;2023-04-24T12:04:45;14.05;;;10.23;;
75496;SDS011;64074;47.540;19.072;2023-04-24T12:07:49;14.95;;;10.55;;
75496;SDS011;64074;47.540;19.072;2023-04-24T12:10:52;13.90;;;10.37;;
75496;SDS011;64074;47.540;19.072;2023-04-24T12:14:09;13.43;;;10.57;;
75496;SDS011;64074;47.540;19.072;2023-04-24T12:17:13;15.95;;;10.48;;
75496;SDS011;64074;47.540;19.072;2023-04-24T12:20:17;13.35;;;10.25;;
75496;SDS011;64074;47.540;19.072;2023-04-24T12:23:34;21.08;;;10.40;;
75496;SDS011;64074;47.540;19.072;2023-04-24T12:26:41;15.20;;;10.33;;
75496;SDS011;64074;47.540;19.072;2023-04-24T12:29:52;15.03;;;10.30;;
75496;SDS011;64074;47.540;19.072;2023-04-24T12:32:58;16.38;;;10.18;;
75496;SDS011;64074;47.540;19.072;2023-04-24T12:36:04;12.13;;;8.85;;
75496;SDS011;64074;47.540;19.072;2023-04-24T12:39:14;19.80;;;9.65;;
75496;SDS011;64074;47.540;19.072;2023-04-24T12:42:25;10.80;;;9.10;;
75496;SDS011;64074;47.540;19.072;2023-04-24T12:45:29;12.67;;;9.63;;
75496;SDS011;64074;47.540;19.072;2023-04-24T12:48:33;14.07;;;10.82;;
75496;SDS011;64074;47.540;19.072;2023-04-24T12:51:37;14.98;;;10.50;;
75496;SDS011;64074;47.540;19.072;2023-04-24T12:54:42;40.33;;;24.35;;
75496;SDS011;64074;47.540;19.072;2023-04-24T12:58:02;11.53;;;9.80;;
75496;SDS011;64074;47.540;19.072;2023-04-24T13:01:05;16.40;;;10.10;;
75496;SDS011;64074;47.540;19.072;2023-04-24T13:04:10;14.45;;;9.35;;
75496;SDS011;64074;47.540;19.072;2023-04-24T13:07:40;13.57;;;9.85;;
75496;SDS011;64074;47.540;19.072;2023-04-24T13:11:05;16.67;;;8.77;;
75496;SDS011;64074;47.540;19.072;2023-04-24T13:14:08;16.00;;;11.57;;
75496;SDS011;64074;47.540;19.072;2023-04-24T13:17:11;17.93;;;9.40;;
75496;SDS011;64074;47.540;19.072;2023-04-24T13:20:15;12.10;;;8.35;;
75496;SDS011;64074;47.540;19.072;2023-04-24T13:23:19;13.95;;;8.10;;
75496;SDS011;64074;47.540;19.072;2023-04-24T13:26:23;11.45;;;7.65;;
75496;SDS011;64074;47.540;19.072;2023-04-24T13:29:26;9.40;;;7.03;;
75496;SDS011;64074;47.540;19.072;2023-04-24T13:32:30;11.27;;;6.13;;
75496;SDS011;64074;47.540;19.072;2023-04-24T13:35:33;12.32;;;5.90;;
75496;SDS011;64074;47.540;19.072;2023-04-24T13:38:36;8.18;;;5.65;;
75496;SDS011;64074;47.540;19.072;2023-04-24T13:41:38;9.07;;;5.43;;
75496;SDS011;64074;47.540;19.072;2023-04-24T13:44:41;10.53;;;5.30;;
75496;SDS011;64074;47.540;19.072;2023-04-24T13:47:44;8.43;;;5.27;;
75496;SDS011;64074;47.540;19.072;2023-04-24T13:50:48;17.98;;;5.10;;
75496;SDS011;64074;47.540;19.072;2023-04-24T13:53:54;10.65;;;5.38;;
75496;SDS011;64074;47.540;19.072;2023-04-24T13:56:58;11.10;;;5.55;;
75496;SDS011;64074;47.540;19.072;2023-04-24T14:00:01;13.00;;;7.93;;
75496;SDS011;64074;47.540;19.072;2023-04-24T14:03:09;11.10;;;6.33;;
75496;SDS011;64074;47.540;19.072;2023-04-24T14:06:12;11.70;;;7.35;;
75496;SDS011;64074;47.540;19.072;2023-04-24T14:09:15;8.73;;;6.28;;
75496;SDS011;64074;47.540;19.072;2023-04-24T14:12:18;11.18;;;7.93;;
75496;SDS011;64074;47.540;19.072;2023-04-24T14:15:22;14.17;;;7.93;;
75496;SDS011;64074;47.540;19.072;2023-04-24T14:18:25;9.40;;;6.97;;
75496;SDS011;64074;47.540;19.072;2023-04-24T14:21:29;13.60;;;8.02;;
75496;SDS011;64074;47.540;19.072;2023-04-24T14:24:33;17.95;;;9.73;;
75496;SDS011;64074;47.540;19.072;2023-04-24T14:27:35;13.35;;;8.65;;
75496;SDS011;64074;47.540;19.072;2023-04-24T14:30:38;10.57;;;8.50;;
75496;SDS011;64074;47.540;19.072;2023-04-24T14:33:42;12.33;;;7.80;;
75496;SDS011;64074;47.540;19.072;2023-04-24T14:36:45;12.75;;;8.63;;
75496;SDS011;64074;47.540;19.072;2023-04-24T14:39:48;13.10;;;8.70;;
75496;SDS011;64074;47.540;19.072;2023-04-24T14:43:11;13.10;;;8.20;;
75496;SDS011;64074;47.540;19.072;2023-04-24T14:46:14;14.20;;;7.80;;
75496;SDS011;64074;47.540;19.072;2023-04-24T14:49:17;11.03;;;8.20;;
75496;SDS011;64074;47.540;19.072;2023-04-24T14:52:20;9.02;;;7.65;;
75496;SDS011;64074;47.540;19.072;2023-04-24T14:55:23;12.02;;;8.43;;
75496;SDS011;64074;47.540;19.072;2023-04-24T14:58:28;12.13;;;8.52;;
75496;SDS011;64074;47.540;19.072;2023-04-24T15:01:32;14.37;;;9.00;;
75496;SDS011;64074;47.540;19.072;2023-04-24T15:04:35;13.23;;;10.10;;
75496;SDS011;64074;47.540;19.072;2023-04-24T15:07:38;9.93;;;8.43;;
75496;SDS011;64074;47.540;19.072;2023-04-24T15:10:43;10.50;;;7.90;;
75496;SDS011;64074;47.540;19.072;2023-04-24T15:13:47;9.75;;;7.90;;
75496;SDS011;64074;47.540;19.072;2023-04-24T15:16:50;10.97;;;8.43;;
75496;SDS011;64074;47.540;19.072;2023-04-24T15:19:53;10.77;;;8.60;;
75496;SDS011;64074;47.540;19.072;2023-04-24T15:22:57;8.40;;;7.10;;
75496;SDS011;64074;47.540;19.072;2023-04-24T15:26:02;11.50;;;7.57;;
75496;SDS011;64074;47.540;19.072;2023-04-24T15:29:05;7.30;;;6.47;;
75496;SDS011;64074;47.540;19.072;2023-04-24T15:32:08;11.93;;;6.10;;
75496;SDS011;64074;47.540;19.072;2023-04-24T15:35:12;9.57;;;5.83;;
75496;SDS011;64074;47.540;19.072;2023-04-24T15:38:14;8.32;;;6.47;;
75496;SDS011;64074;47.540;19.072;2023-04-24T15:41:17;8.73;;;5.75;;
75496;SDS011;64074;47.540;19.072;2023-04-24T15:44:21;7.32;;;5.20;;
75496;SDS011;64074;47.540;19.072;2023-04-24T15:47:24;7.27;;;5.60;;
75496;SDS011;64074;47.540;19.072;2023-04-24T15:50:27;7.07;;;5.43;;
75496;SDS011;64074;47.540;19.072;2023-04-24T15:53:31;7.43;;;5.03;;
75496;SDS011;64074;47.540;19.072;2023-04-24T15:56:34;5.78;;;4.90;;
75496;SDS011;64074;47.540;19.072;2023-04-24T15:59:38;18.15;;;14.55;;
75496;SDS011;64074;47.540;19.072;2023-04-24T16:02:41;6.63;;;4.93;;
75496;SDS011;64074;47.540;19.072;2023-04-24T16:05:44;7.97;;;4.50;;
75496;SDS011;64074;47.540;19.072;2023-04-24T16:08:47;5.43;;;4.70;;
75496;SDS011;64074;47.540;19.072;2023-04-24T16:11:50;6.18;;;4.90;;
75496;SDS011;64074;47.540;19.072;2023-04-24T16:14:59;6.03;;;4.72;;
75496;SDS011;64074;47.540;19.072;2023-04-24T16:18:02;6.20;;;4.90;;
75496;SDS011;64074;47.540;19.072;2023-04-24T16:21:06;5.97;;;4.97;;
75496;SDS011;64074;47.540;19.072;2023-04-24T16:24:10;8.18;;;5.45;;
75496;SDS011;64074;47.540;19.072;2023-04-24T16:27:13;7.25;;;5.47;;
75496;SDS011;64074;47.540;19.072;2023-04-24T16:30:18;8.43;;;6.20;;
75496;SDS011;64074;47.540;19.072;2023-04-24T16:33:20;7.73;;;5.93;;
75496;SDS011;64074;47.540;19.072;2023-04-24T16:36:23;8.03;;;5.40;;
75496;SDS011;64074;47.540;19.072;2023-04-24T16:39:26;8.65;;;7.03;;
75496;SDS011;64074;47.540;19.072;2023-04-24T16:42:29;7.05;;;5.95;;
75496;SDS011;64074;47.540;19.072;2023-04-24T16:45:32;7.20;;;6.22;;
75496;SDS011;64074;47.540;19.072;2023-04-24T16:48:35;7.60;;;5.47;;
75496;SDS011;64074;47.540;19.072;2023-04-24T16:51:37;6.63;;;5.53;;
75496;SDS011;64074;47.540;19.072;2023-04-24T16:54:40;6.90;;;5.03;;
75496;SDS011;64074;47.540;19.072;2023-04-24T16:57:43;6.05;;;5.22;;
75496;SDS011;64074;47.540;19.072;2023-04-24T17:00:46;6.70;;;6.00;;
75496;SDS011;64074;47.540;19.072;2023-04-24T17:03:50;7.90;;;5.93;;
75496;SDS011;64074;47.540;19.072;2023-04-24T17:07:00;7.60;;;5.80;;
75496;SDS011;64074;47.540;19.072;2023-04-24T17:10:03;6.70;;;5.40;;
75496;SDS011;64074;47.540;19.072;2023-04-24T17:13:07;7.75;;;6.00;;
75496;SDS011;64074;47.540;19.072;2023-04-24T17:16:10;7.00;;;5.63;;
75496;SDS011;64074;47.540;19.072;2023-04-24T17:19:12;9.03;;;6.00;;
75496;SDS011;64074;47.540;19.072;2023-04-24T17:22:15;6.67;;;5.90;;
75496;SDS011;64074;47.540;19.072;2023-04-24T17:25:18;8.90;;;5.93;;
75496;SDS011;64074;47.540;19.072;2023-04-24T17:28:26;6.20;;;5.28;;
75496;SDS011;64074;47.540;19.072;2023-04-24T17:31:30;6.35;;;5.03;;
75496;SDS011;64074;47.540;19.072;2023-04-24T17:34:33;10.33;;;5.23;;
75496;SDS011;64074;47.540;19.072;2023-04-24T17:37:35;6.40;;;5.17;;
75496;SDS011;64074;47.540;19.072;2023-04-24T17:40:40;8.48;;;6.00;;
75496;SDS011;64074;47.540;19.072;2023-04-24T17:43:43;5.20;;;4.53;;
75496;SDS011;64074;47.540;19.072;2023-04-24T17:46:47;5.65;;;4.70;;
75496;SDS011;64074;47.540;19.072;2023-04-24T17:49:51;9.03;;;5.10;;
75496;SDS011;64074;47.540;19.072;2023-04-24T17:52:54;5.43;;;4.40;;
75496;SDS011;64074;47.540;19.072;2023-04-24T17:55:56;4.43;;;3.90;;
75496;SDS011;64074;47.540;19.072;2023-04-24T17:59:03;5.20;;;3.30;;
75496;SDS011;64074;47.540;19.072;2023-04-24T18:02:06;3.95;;;3.50;;
75496;SDS011;64074;47.540;19.072;2023-04-24T18:05:11;4.10;;;3.27;;
75496;SDS011;64074;47.540;19.072;2023-04-24T18:08:13;4.30;;;2.90;;
75496;SDS011;64074;47.540;19.072;2023-04-24T18:11:16;3.78;;;2.53;;
75496;SDS011;64074;47.540;19.072;2023-04-24T18:14:19;4.55;;;3.10;;
75496;SDS011;64074;47.540;19.072;2023-04-24T18:17:22;3.80;;;2.83;;